createdAt,value
2018-03-30T00:00:58.509Z,69.20
2018-03-30T00:03:27.939Z,70.20
2018-03-30T00:05:57.080Z,72.60
2018-03-30T00:08:27.531Z,73.60
2018-03-30T00:10:56.746Z,70.60
2018-03-30T00:13:26.105Z,73.00
2018-03-30T00:15:55.339Z,71.00
2018-03-30T00:18:24.961Z,72.40
2018-03-30T00:20:53.787Z,66.20
2018-03-30T00:23:22.975Z,71.40
2018-03-30T00:25:52.198Z,68.80
2018-03-30T00:28:21.323Z,66.20
2018-03-30T00:30:49.988Z,68.40
2018-03-30T00:33:19.083Z,64.00
2018-03-30T00:35:48.056Z,66.00
2018-03-30T00:38:17.215Z,63.60
2018-03-30T00:40:46.714Z,64.00
2018-03-30T00:43:15.672Z,67.40
2018-03-30T00:45:45.481Z,60.40
2018-03-30T00:48:14.653Z,62.80
2018-03-30T00:50:43.417Z,64.00
2018-03-30T00:53:25.034Z,63.40
2018-03-30T00:55:54.288Z,62.20
2018-03-30T00:58:23.176Z,66.40
2018-03-30T01:00:52.302Z,70.40
2018-03-30T01:03:21.454Z,71.00
2018-03-30T01:05:50.906Z,72.60
2018-03-30T01:08:20.007Z,72.80
2018-03-30T01:10:49.046Z,70.40
2018-03-30T01:13:17.932Z,79.00
2018-03-30T01:15:47.114Z,78.20
2018-03-30T01:18:16.462Z,79.00
2018-03-30T01:20:45.568Z,79.20
2018-03-30T01:23:14.866Z,80.40
2018-03-30T01:25:44.232Z,79.00
2018-03-30T01:28:13.110Z,77.60
2018-03-30T01:30:42.209Z,79.60
2018-03-30T01:33:11.054Z,80.40
2018-03-30T01:35:39.953Z,79.20
2018-03-30T01:38:09.072Z,82.60
2018-03-30T01:40:38.180Z,88.00
2018-03-30T01:43:08.100Z,91.20
2018-03-30T01:45:37.513Z,95.60
2018-03-30T01:48:06.889Z,99.20
2018-03-30T01:50:35.893Z,95.20
2018-03-30T01:53:04.901Z,104.40
2018-03-30T01:55:34.217Z,102.00
2018-03-30T01:58:03.612Z,102.80
2018-03-30T02:00:32.625Z,108.50
2018-03-30T02:03:01.996Z,104.50
2018-03-30T02:05:31.070Z,100.60
2018-03-30T02:08:00.322Z,93.60
2018-03-30T02:10:29.400Z,86.40
2018-03-30T02:12:58.225Z,86.40
2018-03-30T02:15:27.445Z,81.00
2018-03-30T02:17:56.814Z,81.00
2018-03-30T02:20:26.183Z,81.00
2018-03-30T02:22:55.260Z,79.40
2018-03-30T02:25:24.637Z,84.20
2018-03-30T02:27:54.205Z,87.20
2018-03-30T02:30:23.367Z,88.00
2018-03-30T02:32:52.470Z,92.20
2018-03-30T02:35:22.745Z,91.60
2018-03-30T02:37:51.988Z,92.00
2018-03-30T02:40:21.254Z,96.40
2018-03-30T02:42:50.586Z,95.40
2018-03-30T02:45:20.127Z,95.60
2018-03-30T02:47:49.439Z,100.40
2018-03-30T02:50:18.763Z,94.80
2018-03-30T02:52:47.997Z,86.00
2018-03-30T02:55:16.805Z,79.20
2018-03-30T02:57:46.112Z,76.80
2018-03-30T03:00:15.426Z,76.60
2018-03-30T03:02:44.583Z,82.00
2018-03-30T03:05:13.786Z,83.40
2018-03-30T03:07:42.930Z,82.20
2018-03-30T03:10:11.946Z,84.40
2018-03-30T03:12:41.007Z,79.60
2018-03-30T03:15:09.916Z,80.20
2018-03-30T03:17:39.076Z,77.60
2018-03-30T03:20:08.263Z,78.40
2018-03-30T03:22:37.387Z,80.60
2018-03-30T03:25:06.412Z,73.20
2018-03-30T03:27:35.799Z,72.40
2018-03-30T03:30:04.859Z,68.00
2018-03-30T03:32:33.648Z,69.40
2018-03-30T03:35:02.871Z,69.00
2018-03-30T03:37:31.997Z,70.00
2018-03-30T03:40:00.763Z,69.80
2018-03-30T03:42:29.590Z,70.20
2018-03-30T03:44:58.356Z,64.00
2018-03-30T03:47:27.307Z,65.20
2018-03-30T03:49:56.580Z,61.00
2018-03-30T03:52:25.975Z,63.60
2018-03-30T03:54:55.133Z,69.00
2018-03-30T03:57:24.411Z,62.80
2018-03-30T03:59:53.983Z,62.60
2018-03-30T04:02:23.262Z,56.20
2018-03-30T04:04:52.526Z,57.20
2018-03-30T04:07:21.821Z,59.40
2018-03-30T04:09:50.947Z,59.40
2018-03-30T04:12:19.879Z,62.00
2018-03-30T04:14:49.048Z,57.60
2018-03-30T04:17:17.995Z,56.00
2018-03-30T04:19:47.341Z,52.60
2018-03-30T04:22:16.401Z,51.20
2018-03-30T04:24:45.477Z,45.60
2018-03-30T04:27:15.196Z,48.20
2018-03-30T04:29:44.525Z,48.00
2018-03-30T04:32:13.732Z,43.80
2018-03-30T04:34:43.078Z,47.00
2018-03-30T04:37:12.340Z,43.40
2018-03-30T04:39:42.327Z,42.80
2018-03-30T04:42:12.618Z,36.00
2018-03-30T04:44:41.920Z,39.60
2018-03-30T04:47:10.983Z,35.60
2018-03-30T04:49:39.742Z,34.00
2018-03-30T04:52:08.812Z,33.80
2018-03-30T04:54:38.183Z,34.40
2018-03-30T04:57:07.618Z,31.80
2018-03-30T04:59:37.075Z,32.00
2018-03-30T05:02:06.478Z,30.80
2018-03-30T05:04:35.940Z,30.20
2018-03-30T05:07:05.551Z,28.40
2018-03-30T05:09:35.033Z,28.40
2018-03-30T05:12:04.440Z,27.40
2018-03-30T05:14:33.689Z,27.20
2018-03-30T05:17:02.822Z,27.20
2018-03-30T05:19:32.065Z,26.40
2018-03-30T05:22:00.948Z,25.40
2018-03-30T05:24:30.494Z,25.40
2018-03-30T05:27:01.166Z,26.40
2018-03-30T05:29:33.168Z,26.40
2018-03-30T05:32:06.153Z,27.20
2018-03-30T05:34:36.664Z,26.00
2018-03-30T05:37:09.418Z,27.80
2018-03-30T05:39:39.711Z,28.40
2018-03-30T05:42:08.799Z,27.00
2018-03-30T05:44:38.549Z,27.20
2018-03-30T05:47:07.623Z,27.00
2018-03-30T05:49:37.143Z,27.20
2018-03-30T05:52:06.215Z,27.40
2018-03-30T05:54:35.846Z,27.40
2018-03-30T05:57:04.949Z,27.40
2018-03-30T05:59:34.345Z,27.00
2018-03-30T06:02:03.791Z,24.80
2018-03-30T06:04:33.039Z,28.20
2018-03-30T06:07:01.983Z,27.80
2018-03-30T06:09:31.228Z,26.80
2018-03-30T06:12:01.060Z,26.20
2018-03-30T06:14:30.579Z,26.60
2018-03-30T06:17:00.097Z,26.60
2018-03-30T06:19:31.451Z,24.00
2018-03-30T06:22:01.235Z,23.40
2018-03-30T06:24:30.692Z,23.00
2018-03-30T06:27:01.357Z,22.60
2018-03-30T06:29:35.992Z,20.80
2018-03-30T06:32:08.546Z,22.40
2018-03-30T06:34:38.525Z,21.60
2018-03-30T06:37:09.214Z,19.20
2018-03-30T06:39:41.763Z,19.00
2018-03-30T06:42:12.385Z,21.00
2018-03-30T06:44:42.337Z,21.80
2018-03-30T06:47:12.712Z,19.00
2018-03-30T06:49:42.313Z,20.20
2018-03-30T06:52:11.503Z,21.00
2018-03-30T06:54:40.434Z,20.00
2018-03-30T06:57:09.775Z,20.80
2018-03-30T06:59:38.954Z,19.20
2018-03-30T07:02:08.346Z,18.60
2018-03-30T07:04:37.735Z,18.00
2018-03-30T07:07:06.949Z,19.20
2018-03-30T07:09:36.487Z,16.80
2018-03-30T07:12:05.921Z,19.60
2018-03-30T07:14:37.096Z,19.00
2018-03-30T07:17:08.259Z,20.00
2018-03-30T07:19:39.650Z,16.60
2018-03-30T07:22:12.776Z,16.00
2018-03-30T07:24:43.017Z,19.00
2018-03-30T07:27:14.437Z,18.20
2018-03-30T07:29:48.071Z,15.40
2018-03-30T07:32:18.797Z,15.20
2018-03-30T07:34:48.993Z,15.80
2018-03-30T07:37:19.191Z,15.60
2018-03-30T07:39:48.901Z,16.80
2018-03-30T07:42:19.435Z,14.20
2018-03-30T07:44:48.870Z,12.00
2018-03-30T07:47:19.292Z,13.00
2018-03-30T07:49:48.645Z,12.00
2018-03-30T07:52:18.598Z,14.00
2018-03-30T07:54:48.660Z,14.20
2018-03-30T07:57:20.153Z,14.00
2018-03-30T07:59:51.875Z,15.80
2018-03-30T08:02:24.290Z,14.40
2018-03-30T08:04:56.685Z,13.20
2018-03-30T08:07:27.881Z,14.40
2018-03-30T08:12:37.272Z,16.60
2018-03-30T08:15:06.010Z,15.40
2018-03-30T08:17:37.503Z,13.20
2018-03-30T08:20:10.404Z,13.00
2018-03-30T08:22:42.873Z,12.20
2018-03-30T08:25:14.904Z,14.60
2018-03-30T08:27:45.239Z,14.00
2018-03-30T08:30:15.226Z,13.60
2018-03-30T08:32:46.023Z,14.20
2018-03-30T08:35:16.212Z,11.80
2018-03-30T08:37:47.413Z,12.00
2018-03-30T08:40:17.926Z,12.20
2018-03-30T08:42:49.012Z,10.60
2018-03-30T08:47:56.831Z,12.00
2018-03-30T08:50:26.488Z,10.20
2018-03-30T08:52:55.968Z,8.80
2018-03-30T08:55:25.067Z,8.80
2018-03-30T08:57:53.953Z,9.80
2018-03-30T09:00:23.313Z,6.00
2018-03-30T09:02:53.383Z,7.80
2018-03-30T09:05:23.432Z,8.20
2018-03-30T09:07:54.737Z,6.80
2018-03-30T09:10:25.731Z,7.20
2018-03-30T09:12:58.074Z,9.40
2018-03-30T09:15:29.481Z,9.00
2018-03-30T09:18:00.130Z,9.80
2018-03-30T09:20:34.985Z,8.00
2018-03-30T09:23:06.092Z,10.20
2018-03-30T09:25:35.231Z,11.20
2018-03-30T09:28:03.971Z,15.20
2018-03-30T09:30:34.381Z,17.00
2018-03-30T09:33:03.879Z,11.40
2018-03-30T09:35:33.411Z,11.40
2018-03-30T09:38:02.854Z,11.80
2018-03-30T09:40:32.488Z,12.80
2018-03-30T09:43:02.933Z,10.40
2018-03-30T09:45:33.558Z,10.00
2018-03-30T09:48:05.268Z,10.20
2018-03-30T09:50:35.705Z,8.40
2018-03-30T10:02:54.770Z,9.00
2018-03-30T10:05:24.038Z,8.60
2018-03-30T10:07:53.128Z,8.80
2018-03-30T10:10:22.582Z,8.20
2018-03-30T10:12:51.827Z,10.80
2018-03-30T10:15:21.033Z,8.00
2018-03-30T10:17:50.253Z,7.20
2018-03-30T10:20:20.008Z,7.40
2018-03-30T10:22:49.148Z,7.40
2018-03-30T10:25:18.594Z,7.60
2018-03-30T10:27:49.070Z,7.00
2018-03-30T10:30:19.826Z,7.20
2018-03-30T10:32:57.574Z,10.60
2018-03-30T10:35:28.131Z,8.20
2018-03-30T10:37:59.958Z,9.00
2018-03-30T10:40:31.331Z,8.00
2018-03-30T10:43:00.947Z,10.40
2018-03-30T10:45:29.911Z,7.00
2018-03-30T10:47:59.047Z,11.20
2018-03-30T10:50:28.117Z,10.20
2018-03-30T10:52:57.633Z,9.00
2018-03-30T10:55:26.725Z,8.20
2018-03-30T10:57:55.844Z,8.20
2018-03-30T11:00:25.037Z,8.80
2018-03-30T11:02:56.136Z,8.40
2018-03-30T11:05:27.286Z,9.00
2018-03-30T11:07:57.532Z,8.60
2018-03-30T11:10:29.021Z,8.60
2018-03-30T11:13:00.193Z,8.20
2018-03-30T11:15:31.025Z,9.00
2018-03-30T11:18:02.206Z,9.00
2018-03-30T11:20:33.170Z,9.80
2018-03-30T11:23:05.360Z,8.40
2018-03-30T11:25:35.290Z,10.00
2018-03-30T11:28:04.430Z,10.80
2018-03-30T11:30:39.671Z,8.00
2018-03-30T11:33:09.024Z,9.40
2018-03-30T11:35:38.006Z,9.80
2018-03-30T11:38:07.245Z,10.60
2018-03-30T11:40:36.532Z,8.20
2018-03-30T11:43:07.609Z,8.20
2018-03-30T11:45:40.423Z,8.00
2018-03-30T11:48:10.665Z,8.20
2018-03-30T11:50:41.550Z,10.20
2018-03-30T11:53:13.168Z,8.60
2018-03-30T11:55:43.227Z,9.80
2018-03-30T11:58:13.898Z,10.60
2018-03-30T12:00:44.036Z,11.40
2018-03-30T12:03:14.267Z,11.00
2018-03-30T12:05:44.703Z,8.80
2018-03-30T12:08:15.211Z,10.00
2018-03-30T12:10:47.698Z,10.00
2018-03-30T12:13:20.613Z,8.60
2018-03-30T12:15:49.608Z,9.60
2018-03-30T12:21:28.196Z,10.00
2018-03-30T12:23:59.021Z,7.80
2018-03-30T12:26:28.932Z,8.80
2018-03-30T12:28:59.753Z,9.20
2018-03-30T12:31:29.454Z,7.40
2018-03-30T12:33:59.281Z,7.40
2018-03-30T12:36:29.069Z,9.80
2018-03-30T12:38:58.768Z,8.00
2018-03-30T12:41:28.985Z,9.60
2018-03-30T12:43:58.432Z,11.80
2018-03-30T12:46:29.419Z,13.60
2018-03-30T12:48:59.602Z,15.00
2018-03-30T12:51:30.220Z,16.20
2018-03-30T12:54:00.280Z,16.20
2018-03-30T12:56:29.845Z,17.00
2018-03-30T12:58:59.266Z,18.00
2018-03-30T13:01:28.733Z,14.80
2018-03-30T13:03:58.121Z,17.00
2018-03-30T13:06:27.131Z,17.40
2018-03-30T13:08:56.366Z,17.60
2018-03-30T13:11:25.639Z,20.20
2018-03-30T13:13:54.830Z,20.00
2018-03-30T13:16:24.284Z,20.40
2018-03-30T13:18:53.551Z,20.60
2018-03-30T13:21:23.134Z,21.00
2018-03-30T13:23:52.567Z,18.00
2018-03-30T13:26:21.830Z,19.00
2018-03-30T13:28:51.044Z,16.00
2018-03-30T13:31:20.437Z,16.80
2018-03-30T13:33:49.740Z,17.60
2018-03-30T13:36:19.169Z,18.80
2018-03-30T13:38:48.805Z,20.40
2018-03-30T13:41:18.533Z,18.40
2018-03-30T13:43:47.648Z,21.60
2018-03-30T13:46:17.774Z,22.80
2018-03-30T13:48:47.223Z,24.20
2018-03-30T13:51:22.696Z,27.60
2018-03-30T13:53:56.611Z,29.00
2018-03-30T13:56:27.958Z,24.40
2018-03-30T13:59:00.924Z,24.40
2018-03-30T14:01:32.166Z,23.60
2018-03-30T14:04:13.681Z,23.20
2018-03-30T14:09:42.559Z,24.40
2018-03-30T14:12:17.947Z,24.00
2018-03-30T14:14:47.583Z,25.60
2018-03-30T14:17:22.423Z,25.60
2018-03-30T14:19:54.642Z,26.80
2018-03-30T14:22:28.026Z,24.40
2018-03-30T14:24:57.888Z,28.00
2018-03-30T14:27:39.424Z,27.20
2018-03-30T14:30:17.333Z,26.40
2018-03-30T14:32:54.698Z,27.40
2018-03-30T14:38:34.953Z,28.20
2018-03-30T14:41:05.034Z,30.00
2018-03-30T14:43:36.038Z,31.00
2018-03-30T14:46:12.439Z,31.20
2018-03-30T14:48:42.962Z,30.20
2018-03-30T14:54:32.386Z,28.80
2018-03-30T14:57:05.698Z,30.80
2018-03-30T14:59:35.877Z,31.00
2018-03-30T15:05:22.566Z,31.20
2018-03-30T15:07:54.373Z,31.20
2018-03-30T15:10:29.815Z,32.60
2018-03-30T15:13:06.908Z,32.20
2018-03-30T15:18:42.486Z,34.00
2018-03-30T15:21:17.671Z,32.00
2018-03-30T15:23:58.171Z,32.60
2018-03-30T15:26:29.445Z,33.00
2018-03-30T15:29:02.079Z,32.40
2018-03-30T15:31:33.176Z,31.60
2018-03-30T15:37:05.762Z,34.20
2018-03-30T15:39:35.372Z,33.80
2018-03-30T15:42:05.036Z,33.80
2018-03-30T15:44:35.648Z,33.80
2018-03-30T15:47:07.945Z,34.00
2018-03-30T15:49:37.243Z,34.00
2018-03-30T15:52:07.323Z,35.40
2018-03-30T15:54:36.939Z,35.00
2018-03-30T15:57:07.190Z,35.00
2018-03-30T15:59:36.508Z,35.60
2018-03-30T16:02:05.954Z,35.60
2018-03-30T16:04:35.583Z,35.00
2018-03-30T16:07:05.014Z,36.00
2018-03-30T16:12:39.572Z,35.20
2018-03-30T16:15:09.349Z,35.20
2018-03-30T16:17:39.040Z,36.20
2018-03-30T16:20:07.693Z,35.20
2018-03-30T16:22:36.271Z,34.80
2018-03-30T16:25:04.827Z,36.20
2018-03-30T16:27:33.677Z,35.20
2018-03-30T16:30:02.353Z,34.00
2018-03-30T16:32:30.973Z,33.00
2018-03-30T16:34:59.323Z,36.00
2018-03-30T16:37:27.603Z,35.00
2018-03-30T16:39:56.250Z,34.40
2018-03-30T16:42:24.609Z,36.00
2018-03-30T16:44:53.347Z,35.40
2018-03-30T16:47:22.610Z,36.20
2018-03-30T16:49:51.484Z,36.80
2018-03-30T16:52:19.918Z,36.00
2018-03-30T16:54:48.727Z,35.40
2018-03-30T16:57:18.138Z,38.60
2018-03-30T16:59:46.654Z,36.60
2018-03-30T17:02:15.315Z,36.60
2018-03-30T17:04:44.288Z,37.20
2018-03-30T17:07:12.948Z,37.20
2018-03-30T17:09:42.608Z,39.40
2018-03-30T17:12:11.111Z,37.20
2018-03-30T17:14:39.690Z,37.40
2018-03-30T17:17:08.180Z,39.20
2018-03-30T17:19:36.611Z,39.40
2018-03-30T17:22:05.190Z,42.60
2018-03-30T17:24:36.629Z,40.20
2018-03-30T17:27:10.673Z,37.80
2018-03-30T17:29:39.276Z,41.80
2018-03-30T17:32:07.665Z,42.00
2018-03-30T17:34:36.194Z,42.20
2018-03-30T17:37:04.910Z,46.00
2018-03-30T17:39:33.634Z,47.80
2018-03-30T17:42:02.076Z,43.60
2018-03-30T17:44:30.798Z,43.60
2018-03-30T17:46:59.769Z,46.00
2018-03-30T17:49:28.448Z,46.80
2018-03-30T17:51:57.205Z,47.40
2018-03-30T17:54:25.966Z,46.80
2018-03-30T17:56:54.435Z,45.60
2018-03-30T17:59:23.653Z,43.60
2018-03-30T18:01:52.099Z,42.00
2018-03-30T18:04:20.855Z,39.00
2018-03-30T18:06:49.559Z,39.60
2018-03-30T18:09:17.860Z,38.00
2018-03-30T18:11:46.454Z,37.80
2018-03-30T18:14:15.551Z,38.00
2018-03-30T18:16:44.220Z,42.40
2018-03-30T18:19:13.049Z,38.80
2018-03-30T18:21:42.008Z,41.20
2018-03-30T18:24:10.781Z,39.40
2018-03-30T18:26:38.976Z,39.00
2018-03-30T18:29:07.782Z,43.40
2018-03-30T18:31:36.536Z,44.80
2018-03-30T18:34:05.566Z,43.80
2018-03-30T18:36:34.285Z,39.80
2018-03-30T18:39:02.990Z,38.60
2018-03-30T18:41:31.773Z,39.20
2018-03-30T18:44:00.328Z,44.20
2018-03-30T18:46:29.000Z,39.60
2018-03-30T18:48:57.735Z,43.80
2018-03-30T18:51:26.359Z,41.20
2018-03-30T18:53:55.426Z,40.80
2018-03-30T18:56:23.796Z,42.40
2018-03-30T18:58:52.118Z,42.80
2018-03-30T19:01:21.136Z,41.20
2018-03-30T19:03:49.680Z,41.40
2018-03-30T19:06:17.876Z,44.00
2018-03-30T19:08:46.323Z,40.20
2018-03-30T19:11:14.602Z,42.80
2018-03-30T19:13:43.393Z,41.20
2018-03-30T19:16:12.065Z,41.00
2018-03-30T19:18:40.664Z,39.60
2018-03-30T19:21:09.557Z,38.60
2018-03-30T19:23:38.249Z,38.20
2018-03-30T19:26:06.909Z,40.00
2018-03-30T19:28:35.489Z,40.40
2018-03-30T19:31:03.884Z,40.20
2018-03-30T19:33:32.248Z,40.60
2018-03-30T19:36:01.030Z,39.00
2018-03-30T19:38:29.248Z,39.40
2018-03-30T19:40:57.679Z,38.20
2018-03-30T19:43:26.470Z,37.80
2018-03-30T19:45:54.618Z,38.80
2018-03-30T19:48:23.100Z,35.80
2018-03-30T19:50:51.385Z,36.80
2018-03-30T19:53:19.767Z,37.00
2018-03-30T19:55:48.292Z,35.40
2018-03-30T19:58:17.054Z,34.00
2018-03-30T20:00:45.666Z,34.60
2018-03-30T20:03:14.312Z,35.60
2018-03-30T20:05:42.609Z,33.80
2018-03-30T20:08:11.135Z,34.00
2018-03-30T20:10:39.534Z,33.20
2018-03-30T20:13:07.975Z,33.00
2018-03-30T20:15:36.691Z,34.20
2018-03-30T20:18:04.812Z,32.60
2018-03-30T20:20:33.397Z,33.60
2018-03-30T20:23:02.023Z,33.20
2018-03-30T20:25:30.670Z,32.00
2018-03-30T20:27:59.246Z,32.60
2018-03-30T20:30:27.825Z,32.20
2018-03-30T20:32:56.445Z,31.80
2018-03-30T20:35:25.277Z,31.40
2018-03-30T20:37:53.791Z,30.60
2018-03-30T20:40:22.189Z,33.00
2018-03-30T20:42:51.754Z,30.60
2018-03-30T20:45:20.694Z,30.60
2018-03-30T20:47:48.890Z,32.80
2018-03-30T20:50:17.264Z,32.20
2018-03-30T20:52:45.970Z,33.00
2018-03-30T20:55:14.860Z,32.20
2018-03-30T20:57:43.262Z,31.60
2018-03-30T21:00:11.510Z,32.60
2018-03-30T21:02:40.157Z,32.20
2018-03-30T21:05:08.546Z,31.60
2018-03-30T21:07:36.975Z,32.40
2018-03-30T21:10:05.542Z,32.40
2018-03-30T21:12:34.205Z,33.00
2018-03-30T21:15:02.824Z,32.00
2018-03-30T21:17:30.870Z,32.60
2018-03-30T21:19:59.443Z,30.80
2018-03-30T21:22:27.912Z,31.60
2018-03-30T21:24:56.386Z,27.60
2018-03-30T21:27:25.029Z,31.60
2018-03-30T21:29:53.363Z,32.00
2018-03-30T21:32:21.925Z,31.00
2018-03-30T21:34:50.584Z,30.40
2018-03-30T21:37:19.251Z,32.20
2018-03-30T21:39:47.921Z,31.00
2018-03-30T21:42:16.622Z,30.20
2018-03-30T21:44:45.395Z,30.00
2018-03-30T21:47:13.559Z,29.40
2018-03-30T21:49:41.749Z,31.00
2018-03-30T21:52:10.074Z,32.80
2018-03-30T21:54:38.610Z,30.40
2018-03-30T21:57:07.413Z,29.00
2018-03-30T21:59:35.831Z,29.80
2018-03-30T22:02:03.909Z,31.00
2018-03-30T22:04:32.454Z,30.20
2018-03-30T22:07:00.826Z,19.20
2018-03-30T22:09:29.371Z,28.80
2018-03-30T22:11:58.052Z,30.60
2018-03-30T22:14:26.410Z,29.00
2018-03-30T22:16:55.020Z,23.00
2018-03-30T22:19:23.303Z,32.00
2018-03-30T22:21:51.888Z,30.80
2018-03-30T22:24:20.390Z,33.00
2018-03-30T22:26:48.902Z,30.00
2018-03-30T22:29:17.256Z,30.60
2018-03-30T22:31:45.515Z,31.20
2018-03-30T22:34:13.963Z,32.60
2018-03-30T22:36:42.290Z,31.00
2018-03-30T22:39:10.751Z,30.60
2018-03-30T22:41:39.122Z,29.20
2018-03-30T22:44:08.158Z,30.60
2018-03-30T22:46:36.828Z,29.60
2018-03-30T22:49:05.374Z,27.80
2018-03-30T22:51:33.931Z,29.20
2018-03-30T22:54:02.361Z,29.00
2018-03-30T22:56:31.244Z,31.00
2018-03-30T22:58:59.893Z,29.00
2018-03-30T23:01:28.585Z,28.80
2018-03-30T23:03:57.187Z,28.80
2018-03-30T23:06:25.439Z,29.60
2018-03-30T23:08:54.051Z,26.20
2018-03-30T23:11:22.818Z,29.00
2018-03-30T23:13:50.956Z,29.00
2018-03-30T23:16:19.508Z,27.60
2018-03-30T23:18:48.239Z,28.20
2018-03-30T23:21:16.565Z,29.00
2018-03-30T23:23:45.360Z,28.00
2018-03-30T23:26:14.251Z,28.40
2018-03-30T23:28:42.917Z,28.80
2018-03-30T23:31:11.808Z,32.00
2018-03-30T23:33:40.471Z,28.40
2018-03-30T23:36:09.077Z,32.40
2018-03-30T23:38:37.662Z,27.40
2018-03-30T23:41:06.074Z,31.40
2018-03-30T23:43:34.632Z,30.00
2018-03-30T23:46:03.356Z,29.00
2018-03-30T23:48:31.662Z,28.80
2018-03-30T23:51:00.063Z,31.00
2018-03-30T23:53:28.851Z,30.40
2018-03-30T23:55:57.269Z,30.80
2018-03-30T23:58:25.899Z,29.20
